sensor_id;sensor_type;location;lat;lon;timestamp;P1;durP1;ratioP1;P2;durP2;ratioP2
42294;SDS011;27947;47.556;18.718;2022-09-09T00:02:32;1.00;;;0.80;;
42294;SDS011;27947;47.556;18.718;2022-09-09T00:07:25;4.00;;;1.10;;
42294;SDS011;27947;47.556;18.718;2022-09-09T00:12:36;5.50;;;1.13;;
42294;SDS011;27947;47.556;18.718;2022-09-09T00:15:14;4.43;;;0.88;;
42294;SDS011;27947;47.556;18.718;2022-09-09T00:20:58;1.38;;;0.73;;
42294;SDS011;27947;47.556;18.718;2022-09-09T00:22:57;26.13;;;1.63;;
42294;SDS011;27947;47.556;18.718;2022-09-09T00:28:18;0.90;;;0.80;;
42294;SDS011;27947;47.556;18.718;2022-09-09T00:30:43;0.85;;;0.70;;
42294;SDS011;27947;47.556;18.718;2022-09-09T00:33:13;4.43;;;0.90;;
42294;SDS011;27947;47.556;18.718;2022-09-09T00:35:58;1.85;;;0.70;;
42294;SDS011;27947;47.556;18.718;2022-09-09T00:38:27;5.15;;;0.88;;
42294;SDS011;27947;47.556;18.718;2022-09-09T00:43:28;1.65;;;1.42;;
42294;SDS011;27947;47.556;18.718;2022-09-09T00:48:33;1.13;;;0.90;;
42294;SDS011;27947;47.556;18.718;2022-09-09T00:51:05;1.65;;;0.70;;
42294;SDS011;27947;47.556;18.718;2022-09-09T00:53:51;2.78;;;1.20;;
42294;SDS011;27947;47.556;18.718;2022-09-09T00:56:22;4.45;;;0.85;;
42294;SDS011;27947;47.556;18.718;2022-09-09T00:58:53;7.70;;;0.75;;
42294;SDS011;27947;47.556;18.718;2022-09-09T01:01:23;1.45;;;0.90;;
42294;SDS011;27947;47.556;18.718;2022-09-09T01:03:52;1.83;;;0.70;;
42294;SDS011;27947;47.556;18.718;2022-09-09T01:11:25;4.00;;;0.88;;
42294;SDS011;27947;47.556;18.718;2022-09-09T01:13:58;1.33;;;1.23;;
42294;SDS011;27947;47.556;18.718;2022-09-09T01:16:28;4.35;;;1.00;;
42294;SDS011;27947;47.556;18.718;2022-09-09T01:18:54;8.63;;;1.30;;
42294;SDS011;27947;47.556;18.718;2022-09-09T01:29:11;0.98;;;0.85;;
42294;SDS011;27947;47.556;18.718;2022-09-09T01:31:40;0.80;;;0.80;;
42294;SDS011;27947;47.556;18.718;2022-09-09T01:34:10;3.08;;;1.00;;
42294;SDS011;27947;47.556;18.718;2022-09-09T01:36:39;3.03;;;0.93;;
42294;SDS011;27947;47.556;18.718;2022-09-09T01:39:06;1.13;;;1.02;;
42294;SDS011;27947;47.556;18.718;2022-09-09T01:41:32;2.33;;;0.82;;
42294;SDS011;27947;47.556;18.718;2022-09-09T01:44:04;3.08;;;0.88;;
42294;SDS011;27947;47.556;18.718;2022-09-09T01:46:33;3.30;;;1.00;;
42294;SDS011;27947;47.556;18.718;2022-09-09T01:48:59;2.65;;;0.93;;
42294;SDS011;27947;47.556;18.718;2022-09-09T01:51:26;1.52;;;0.90;;
42294;SDS011;27947;47.556;18.718;2022-09-09T01:53:52;1.27;;;1.02;;
42294;SDS011;27947;47.556;18.718;2022-09-09T01:59:34;1.15;;;0.80;;
42294;SDS011;27947;47.556;18.718;2022-09-09T02:01:41;3.92;;;1.02;;
42294;SDS011;27947;47.556;18.718;2022-09-09T02:06:52;6.38;;;1.08;;
42294;SDS011;27947;47.556;18.718;2022-09-09T02:09:25;1.55;;;1.05;;
42294;SDS011;27947;47.556;18.718;2022-09-09T02:11:55;15.43;;;1.58;;
42294;SDS011;27947;47.556;18.718;2022-09-09T02:14:38;4.45;;;1.17;;
42294;SDS011;27947;47.556;18.718;2022-09-09T02:17:08;1.45;;;1.00;;
42294;SDS011;27947;47.556;18.718;2022-09-09T02:19:53;1.58;;;1.17;;
42294;SDS011;27947;47.556;18.718;2022-09-09T02:22:27;3.08;;;1.17;;
42294;SDS011;27947;47.556;18.718;2022-09-09T02:24:53;3.88;;;1.23;;
42294;SDS011;27947;47.556;18.718;2022-09-09T02:27:24;2.05;;;1.20;;
42294;SDS011;27947;47.556;18.718;2022-09-09T02:29:51;3.35;;;1.10;;
42294;SDS011;27947;47.556;18.718;2022-09-09T02:32:23;2.85;;;1.00;;
42294;SDS011;27947;47.556;18.718;2022-09-09T02:34:53;4.32;;;1.25;;
42294;SDS011;27947;47.556;18.718;2022-09-09T02:37:22;1.30;;;1.17;;
42294;SDS011;27947;47.556;18.718;2022-09-09T02:39:52;2.17;;;1.45;;
42294;SDS011;27947;47.556;18.718;2022-09-09T02:42:19;1.55;;;1.23;;
42294;SDS011;27947;47.556;18.718;2022-09-09T02:44:45;2.47;;;1.23;;
42294;SDS011;27947;47.556;18.718;2022-09-09T02:50:03;2.38;;;1.40;;
42294;SDS011;27947;47.556;18.718;2022-09-09T02:55:07;4.47;;;1.10;;
42294;SDS011;27947;47.556;18.718;2022-09-09T02:57:34;2.35;;;2.05;;
42294;SDS011;27947;47.556;18.718;2022-09-09T03:00:00;1.13;;;0.98;;
42294;SDS011;27947;47.556;18.718;2022-09-09T03:02:30;3.03;;;1.00;;
42294;SDS011;27947;47.556;18.718;2022-09-09T03:05:01;1.67;;;1.25;;
42294;SDS011;27947;47.556;18.718;2022-09-09T03:07:26;1.65;;;0.95;;
42294;SDS011;27947;47.556;18.718;2022-09-09T03:09:53;1.92;;;1.23;;
42294;SDS011;27947;47.556;18.718;2022-09-09T03:12:22;1.48;;;1.20;;
42294;SDS011;27947;47.556;18.718;2022-09-09T03:14:47;2.50;;;1.52;;
42294;SDS011;27947;47.556;18.718;2022-09-09T03:17:13;1.50;;;0.95;;
42294;SDS011;27947;47.556;18.718;2022-09-09T03:19:45;1.23;;;1.13;;
42294;SDS011;27947;47.556;18.718;2022-09-09T03:22:11;1.33;;;1.23;;
42294;SDS011;27947;47.556;18.718;2022-09-09T03:24:40;2.17;;;1.25;;
42294;SDS011;27947;47.556;18.718;2022-09-09T03:27:06;3.85;;;1.33;;
42294;SDS011;27947;47.556;18.718;2022-09-09T03:29:34;4.00;;;1.38;;
42294;SDS011;27947;47.556;18.718;2022-09-09T03:32:01;1.77;;;1.13;;
42294;SDS011;27947;47.556;18.718;2022-09-09T03:34:27;4.13;;;1.13;;
42294;SDS011;27947;47.556;18.718;2022-09-09T03:36:52;2.35;;;1.20;;
42294;SDS011;27947;47.556;18.718;2022-09-09T03:39:18;1.35;;;1.25;;
42294;SDS011;27947;47.556;18.718;2022-09-09T03:41:43;2.05;;;1.77;;
42294;SDS011;27947;47.556;18.718;2022-09-09T03:44:11;1.50;;;1.10;;
42294;SDS011;27947;47.556;18.718;2022-09-09T03:46:39;2.45;;;1.10;;
42294;SDS011;27947;47.556;18.718;2022-09-09T03:49:05;2.97;;;1.20;;
42294;SDS011;27947;47.556;18.718;2022-09-09T03:51:31;4.22;;;1.70;;
42294;SDS011;27947;47.556;18.718;2022-09-09T03:53:56;2.25;;;1.40;;
42294;SDS011;27947;47.556;18.718;2022-09-09T03:56:24;2.72;;;1.70;;
42294;SDS011;27947;47.556;18.718;2022-09-09T03:58:50;2.55;;;1.13;;
42294;SDS011;27947;47.556;18.718;2022-09-09T04:01:16;7.05;;;1.23;;
42294;SDS011;27947;47.556;18.718;2022-09-09T04:03:43;2.20;;;1.30;;
42294;SDS011;27947;47.556;18.718;2022-09-09T04:06:10;1.75;;;1.20;;
42294;SDS011;27947;47.556;18.718;2022-09-09T04:08:36;1.75;;;1.33;;
42294;SDS011;27947;47.556;18.718;2022-09-09T04:11:03;2.45;;;1.35;;
42294;SDS011;27947;47.556;18.718;2022-09-09T04:13:32;2.08;;;1.42;;
42294;SDS011;27947;47.556;18.718;2022-09-09T04:16:00;1.85;;;1.20;;
42294;SDS011;27947;47.556;18.718;2022-09-09T04:18:27;2.63;;;1.40;;
42294;SDS011;27947;47.556;18.718;2022-09-09T04:20:53;3.92;;;1.55;;
42294;SDS011;27947;47.556;18.718;2022-09-09T04:23:22;5.35;;;1.40;;
42294;SDS011;27947;47.556;18.718;2022-09-09T04:25:50;7.70;;;1.35;;
42294;SDS011;27947;47.556;18.718;2022-09-09T04:28:17;5.03;;;1.52;;
42294;SDS011;27947;47.556;18.718;2022-09-09T04:30:43;2.35;;;1.80;;
42294;SDS011;27947;47.556;18.718;2022-09-09T04:33:09;3.08;;;1.67;;
42294;SDS011;27947;47.556;18.718;2022-09-09T04:35:35;8.73;;;1.95;;
42294;SDS011;27947;47.556;18.718;2022-09-09T04:38:00;1.80;;;1.50;;
42294;SDS011;27947;47.556;18.718;2022-09-09T04:40:29;2.58;;;1.90;;
42294;SDS011;27947;47.556;18.718;2022-09-09T04:42:55;1.77;;;1.38;;
42294;SDS011;27947;47.556;18.718;2022-09-09T04:45:22;2.80;;;1.60;;
42294;SDS011;27947;47.556;18.718;2022-09-09T04:47:47;9.30;;;2.00;;
42294;SDS011;27947;47.556;18.718;2022-09-09T04:50:14;1.60;;;1.50;;
42294;SDS011;27947;47.556;18.718;2022-09-09T04:52:40;1.75;;;1.50;;
42294;SDS011;27947;47.556;18.718;2022-09-09T04:55:07;3.53;;;1.73;;
42294;SDS011;27947;47.556;18.718;2022-09-09T04:57:34;3.05;;;2.00;;
42294;SDS011;27947;47.556;18.718;2022-09-09T04:59:59;2.80;;;2.00;;
42294;SDS011;27947;47.556;18.718;2022-09-09T05:02:28;3.88;;;1.75;;
42294;SDS011;27947;47.556;18.718;2022-09-09T05:04:53;3.17;;;1.80;;
42294;SDS011;27947;47.556;18.718;2022-09-09T05:07:19;2.10;;;1.73;;
42294;SDS011;27947;47.556;18.718;2022-09-09T05:09:44;2.20;;;2.00;;
42294;SDS011;27947;47.556;18.718;2022-09-09T05:12:10;2.85;;;1.85;;
42294;SDS011;27947;47.556;18.718;2022-09-09T05:14:41;1.98;;;1.60;;
42294;SDS011;27947;47.556;18.718;2022-09-09T05:17:07;2.28;;;2.08;;
42294;SDS011;27947;47.556;18.718;2022-09-09T05:19:34;3.10;;;2.28;;
42294;SDS011;27947;47.556;18.718;2022-09-09T05:22:00;3.13;;;2.05;;
42294;SDS011;27947;47.556;18.718;2022-09-09T05:24:34;4.20;;;2.35;;
42294;SDS011;27947;47.556;18.718;2022-09-09T05:27:01;2.42;;;1.80;;
42294;SDS011;27947;47.556;18.718;2022-09-09T05:29:27;3.38;;;2.00;;
42294;SDS011;27947;47.556;18.718;2022-09-09T05:31:54;2.70;;;2.05;;
42294;SDS011;27947;47.556;18.718;2022-09-09T05:34:20;5.55;;;2.33;;
42294;SDS011;27947;47.556;18.718;2022-09-09T05:36:46;3.03;;;2.00;;
42294;SDS011;27947;47.556;18.718;2022-09-09T05:39:12;3.35;;;2.55;;
42294;SDS011;27947;47.556;18.718;2022-09-09T05:41:37;2.60;;;2.10;;
42294;SDS011;27947;47.556;18.718;2022-09-09T05:44:03;1.88;;;1.70;;
42294;SDS011;27947;47.556;18.718;2022-09-09T05:46:35;2.55;;;2.00;;
42294;SDS011;27947;47.556;18.718;2022-09-09T05:49:01;5.00;;;2.20;;
42294;SDS011;27947;47.556;18.718;2022-09-09T05:51:30;5.68;;;2.50;;
42294;SDS011;27947;47.556;18.718;2022-09-09T05:53:57;2.97;;;2.05;;
42294;SDS011;27947;47.556;18.718;2022-09-09T05:56:28;2.22;;;1.88;;
42294;SDS011;27947;47.556;18.718;2022-09-09T05:58:55;2.20;;;1.90;;
42294;SDS011;27947;47.556;18.718;2022-09-09T06:01:22;4.03;;;1.88;;
42294;SDS011;27947;47.556;18.718;2022-09-09T06:03:48;2.55;;;1.80;;
42294;SDS011;27947;47.556;18.718;2022-09-09T06:06:16;2.45;;;1.80;;
42294;SDS011;27947;47.556;18.718;2022-09-09T06:08:43;4.38;;;1.83;;
42294;SDS011;27947;47.556;18.718;2022-09-09T06:11:16;2.17;;;1.70;;
42294;SDS011;27947;47.556;18.718;2022-09-09T06:13:42;1.92;;;1.70;;
42294;SDS011;27947;47.556;18.718;2022-09-09T06:16:12;3.97;;;1.85;;
42294;SDS011;27947;47.556;18.718;2022-09-09T06:18:39;2.30;;;1.77;;
42294;SDS011;27947;47.556;18.718;2022-09-09T06:21:05;4.30;;;1.75;;
42294;SDS011;27947;47.556;18.718;2022-09-09T06:23:32;3.20;;;1.80;;
42294;SDS011;27947;47.556;18.718;2022-09-09T06:26:02;2.42;;;1.65;;
42294;SDS011;27947;47.556;18.718;2022-09-09T06:28:28;5.97;;;1.60;;
42294;SDS011;27947;47.556;18.718;2022-09-09T06:31:00;2.65;;;1.77;;
42294;SDS011;27947;47.556;18.718;2022-09-09T06:33:26;3.25;;;1.38;;
42294;SDS011;27947;47.556;18.718;2022-09-09T06:35:53;2.17;;;1.52;;
42294;SDS011;27947;47.556;18.718;2022-09-09T06:38:20;2.50;;;1.85;;
42294;SDS011;27947;47.556;18.718;2022-09-09T06:40:54;1.45;;;1.20;;
42294;SDS011;27947;47.556;18.718;2022-09-09T06:43:22;3.00;;;1.80;;
42294;SDS011;27947;47.556;18.718;2022-09-09T06:45:53;2.22;;;2.00;;
42294;SDS011;27947;47.556;18.718;2022-09-09T06:48:18;2.28;;;1.52;;
42294;SDS011;27947;47.556;18.718;2022-09-09T06:50:43;1.60;;;1.30;;
42294;SDS011;27947;47.556;18.718;2022-09-09T06:53:09;1.77;;;1.42;;
42294;SDS011;27947;47.556;18.718;2022-09-09T06:55:34;22.27;;;1.80;;
42294;SDS011;27947;47.556;18.718;2022-09-09T06:58:00;4.65;;;1.70;;
42294;SDS011;27947;47.556;18.718;2022-09-09T07:00:27;1.90;;;1.45;;
42294;SDS011;27947;47.556;18.718;2022-09-09T07:02:54;2.22;;;1.85;;
42294;SDS011;27947;47.556;18.718;2022-09-09T07:05:20;5.68;;;1.60;;
42294;SDS011;27947;47.556;18.718;2022-09-09T07:07:46;2.28;;;1.85;;
42294;SDS011;27947;47.556;18.718;2022-09-09T07:10:13;2.60;;;1.52;;
42294;SDS011;27947;47.556;18.718;2022-09-09T07:12:39;4.15;;;2.17;;
42294;SDS011;27947;47.556;18.718;2022-09-09T07:15:07;2.97;;;1.90;;
42294;SDS011;27947;47.556;18.718;2022-09-09T07:17:33;2.10;;;1.65;;
42294;SDS011;27947;47.556;18.718;2022-09-09T07:19:58;2.35;;;1.98;;
42294;SDS011;27947;47.556;18.718;2022-09-09T07:22:24;1.92;;;1.50;;
42294;SDS011;27947;47.556;18.718;2022-09-09T07:24:51;2.28;;;1.88;;
42294;SDS011;27947;47.556;18.718;2022-09-09T07:27:17;1.58;;;1.48;;
42294;SDS011;27947;47.556;18.718;2022-09-09T07:29:43;2.75;;;1.58;;
42294;SDS011;27947;47.556;18.718;2022-09-09T07:32:11;3.17;;;1.30;;
42294;SDS011;27947;47.556;18.718;2022-09-09T07:34:37;5.00;;;1.55;;
42294;SDS011;27947;47.556;18.718;2022-09-09T07:37:02;3.72;;;1.50;;
42294;SDS011;27947;47.556;18.718;2022-09-09T07:39:28;1.20;;;1.10;;
42294;SDS011;27947;47.556;18.718;2022-09-09T07:41:54;6.88;;;1.27;;
42294;SDS011;27947;47.556;18.718;2022-09-09T07:44:22;8.05;;;1.35;;
42294;SDS011;27947;47.556;18.718;2022-09-09T07:46:58;1.75;;;1.10;;
42294;SDS011;27947;47.556;18.718;2022-09-09T07:49:28;0.80;;;0.80;;
42294;SDS011;27947;47.556;18.718;2022-09-09T07:51:54;0.80;;;0.80;;
42294;SDS011;27947;47.556;18.718;2022-09-09T07:54:19;1.00;;;0.90;;
42294;SDS011;27947;47.556;18.718;2022-09-09T07:56:47;1.85;;;0.70;;
42294;SDS011;27947;47.556;18.718;2022-09-09T07:59:13;2.08;;;1.00;;
42294;SDS011;27947;47.556;18.718;2022-09-09T08:01:45;2.10;;;0.88;;
42294;SDS011;27947;47.556;18.718;2022-09-09T08:04:13;1.35;;;0.70;;
42294;SDS011;27947;47.556;18.718;2022-09-09T08:06:44;2.65;;;1.10;;
42294;SDS011;27947;47.556;18.718;2022-09-09T08:09:11;1.55;;;0.60;;
42294;SDS011;27947;47.556;18.718;2022-09-09T08:11:38;1.73;;;0.80;;
42294;SDS011;27947;47.556;18.718;2022-09-09T08:14:03;1.45;;;0.70;;
42294;SDS011;27947;47.556;18.718;2022-09-09T08:16:30;1.02;;;0.70;;
42294;SDS011;27947;47.556;18.718;2022-09-09T08:18:57;1.65;;;0.65;;
42294;SDS011;27947;47.556;18.718;2022-09-09T08:21:24;0.80;;;0.73;;
42294;SDS011;27947;47.556;18.718;2022-09-09T08:23:50;1.67;;;0.80;;
42294;SDS011;27947;47.556;18.718;2022-09-09T08:26:21;0.70;;;0.70;;
42294;SDS011;27947;47.556;18.718;2022-09-09T08:28:49;0.50;;;0.50;;
42294;SDS011;27947;47.556;18.718;2022-09-09T08:31:17;0.85;;;0.65;;
42294;SDS011;27947;47.556;18.718;2022-09-09T08:33:44;0.93;;;0.63;;
42294;SDS011;27947;47.556;18.718;2022-09-09T08:36:12;0.40;;;0.40;;
42294;SDS011;27947;47.556;18.718;2022-09-09T08:38:38;0.60;;;0.55;;
42294;SDS011;27947;47.556;18.718;2022-09-09T08:41:07;0.50;;;0.50;;
42294;SDS011;27947;47.556;18.718;2022-09-09T08:43:36;1.08;;;0.77;;
42294;SDS011;27947;47.556;18.718;2022-09-09T08:49:06;1.48;;;0.63;;
42294;SDS011;27947;47.556;18.718;2022-09-09T08:51:38;1.25;;;0.70;;
42294;SDS011;27947;47.556;18.718;2022-09-09T08:54:04;0.50;;;0.50;;
42294;SDS011;27947;47.556;18.718;2022-09-09T08:56:31;0.70;;;0.60;;
42294;SDS011;27947;47.556;18.718;2022-09-09T08:58:59;0.93;;;0.73;;
42294;SDS011;27947;47.556;18.718;2022-09-09T09:06:40;1.83;;;0.60;;
42294;SDS011;27947;47.556;18.718;2022-09-09T09:09:21;0.70;;;0.70;;
42294;SDS011;27947;47.556;18.718;2022-09-09T09:11:50;1.17;;;0.60;;
42294;SDS011;27947;47.556;18.718;2022-09-09T09:17:06;0.95;;;0.40;;
42294;SDS011;27947;47.556;18.718;2022-09-09T09:19:32;0.90;;;0.60;;
42294;SDS011;27947;47.556;18.718;2022-09-09T09:33:05;1.20;;;0.50;;
42294;SDS011;27947;47.556;18.718;2022-09-09T09:38:00;2.13;;;0.47;;
42294;SDS011;27947;47.556;18.718;2022-09-09T09:40:26;0.52;;;0.43;;
42294;SDS011;27947;47.556;18.718;2022-09-09T09:42:53;0.43;;;0.43;;
42294;SDS011;27947;47.556;18.718;2022-09-09T09:45:32;0.50;;;0.50;;
42294;SDS011;27947;47.556;18.718;2022-09-09T09:47:59;4.75;;;0.40;;
42294;SDS011;27947;47.556;18.718;2022-09-09T09:50:24;0.70;;;0.70;;
42294;SDS011;27947;47.556;18.718;2022-09-09T09:52:55;2.72;;;0.50;;
42294;SDS011;27947;47.556;18.718;2022-09-09T09:55:21;0.30;;;0.30;;
42294;SDS011;27947;47.556;18.718;2022-09-09T09:57:49;0.52;;;0.43;;
42294;SDS011;27947;47.556;18.718;2022-09-09T10:00:22;0.60;;;0.30;;
42294;SDS011;27947;47.556;18.718;2022-09-09T10:03:12;0.80;;;0.50;;
42294;SDS011;27947;47.556;18.718;2022-09-09T10:05:38;0.40;;;0.40;;
42294;SDS011;27947;47.556;18.718;2022-09-09T10:08:11;2.60;;;0.40;;
42294;SDS011;27947;47.556;18.718;2022-09-09T10:10:49;0.47;;;0.30;;
42294;SDS011;27947;47.556;18.718;2022-09-09T10:20:51;0.20;;;0.20;;
42294;SDS011;27947;47.556;18.718;2022-09-09T10:28:41;0.57;;;0.40;;
42294;SDS011;27947;47.556;18.718;2022-09-09T10:31:23;0.40;;;0.40;;
42294;SDS011;27947;47.556;18.718;2022-09-09T10:33:51;4.43;;;0.60;;
42294;SDS011;27947;47.556;18.718;2022-09-09T10:36:21;0.40;;;0.40;;
42294;SDS011;27947;47.556;18.718;2022-09-09T10:44:06;1.08;;;0.40;;
42294;SDS011;27947;47.556;18.718;2022-09-09T10:46:42;0.38;;;0.38;;
42294;SDS011;27947;47.556;18.718;2022-09-09T10:51:40;0.50;;;0.45;;
42294;SDS011;27947;47.556;18.718;2022-09-09T10:56:42;0.45;;;0.32;;
42294;SDS011;27947;47.556;18.718;2022-09-09T10:59:12;0.80;;;0.55;;
42294;SDS011;27947;47.556;18.718;2022-09-09T11:01:49;0.60;;;0.50;;
42294;SDS011;27947;47.556;18.718;2022-09-09T11:04:19;1.08;;;0.60;;
42294;SDS011;27947;47.556;18.718;2022-09-09T11:06:48;1.40;;;0.50;;
42294;SDS011;27947;47.556;18.718;2022-09-09T11:09:17;0.73;;;0.50;;
42294;SDS011;27947;47.556;18.718;2022-09-09T11:11:46;0.75;;;0.52;;
42294;SDS011;27947;47.556;18.718;2022-09-09T11:14:21;0.40;;;0.40;;
42294;SDS011;27947;47.556;18.718;2022-09-09T11:16:53;3.05;;;0.60;;
42294;SDS011;27947;47.556;18.718;2022-09-09T11:21:47;0.80;;;0.50;;
42294;SDS011;27947;47.556;18.718;2022-09-09T11:24:23;1.65;;;0.40;;
42294;SDS011;27947;47.556;18.718;2022-09-09T11:26:55;0.82;;;0.50;;
42294;SDS011;27947;47.556;18.718;2022-09-09T11:31:54;0.30;;;0.30;;
42294;SDS011;27947;47.556;18.718;2022-09-09T11:40:04;1.40;;;0.38;;
42294;SDS011;27947;47.556;18.718;2022-09-09T11:42:34;0.40;;;0.40;;
42294;SDS011;27947;47.556;18.718;2022-09-09T11:47:57;3.63;;;0.40;;
42294;SDS011;27947;47.556;18.718;2022-09-09T11:52:49;1.55;;;0.40;;
42294;SDS011;27947;47.556;18.718;2022-09-09T11:55:33;0.88;;;0.40;;
42294;SDS011;27947;47.556;18.718;2022-09-09T11:58:00;0.47;;;0.40;;
42294;SDS011;27947;47.556;18.718;2022-09-09T12:03:00;1.00;;;0.55;;
42294;SDS011;27947;47.556;18.718;2022-09-09T12:05:35;2.05;;;0.60;;
42294;SDS011;27947;47.556;18.718;2022-09-09T12:08:03;0.40;;;0.40;;
42294;SDS011;27947;47.556;18.718;2022-09-09T12:10:30;0.40;;;0.40;;
42294;SDS011;27947;47.556;18.718;2022-09-09T12:16:27;1.90;;;0.32;;
42294;SDS011;27947;47.556;18.718;2022-09-09T12:18:33;0.80;;;0.55;;
42294;SDS011;27947;47.556;18.718;2022-09-09T12:21:05;0.35;;;0.32;;
42294;SDS011;27947;47.556;18.718;2022-09-09T12:23:35;0.45;;;0.40;;
42294;SDS011;27947;47.556;18.718;2022-09-09T12:31:31;0.38;;;0.35;;
42294;SDS011;27947;47.556;18.718;2022-09-09T12:34:30;1.13;;;0.30;;
42294;SDS011;27947;47.556;18.718;2022-09-09T12:36:45;2.92;;;0.40;;
42294;SDS011;27947;47.556;18.718;2022-09-09T12:39:16;1.30;;;0.47;;
42294;SDS011;27947;47.556;18.718;2022-09-09T12:41:50;0.40;;;0.40;;
42294;SDS011;27947;47.556;18.718;2022-09-09T12:44:16;4.00;;;0.50;;
42294;SDS011;27947;47.556;18.718;2022-09-09T12:46:41;5.20;;;0.60;;
42294;SDS011;27947;47.556;18.718;2022-09-09T12:51:52;2.22;;;0.40;;
42294;SDS011;27947;47.556;18.718;2022-09-09T12:54:18;0.90;;;0.50;;
42294;SDS011;27947;47.556;18.718;2022-09-09T12:56:47;1.98;;;0.40;;
42294;SDS011;27947;47.556;18.718;2022-09-09T12:59:26;2.78;;;0.40;;
42294;SDS011;27947;47.556;18.718;2022-09-09T13:01:55;0.75;;;0.40;;
42294;SDS011;27947;47.556;18.718;2022-09-09T13:04:21;0.93;;;0.40;;
42294;SDS011;27947;47.556;18.718;2022-09-09T13:06:49;0.77;;;0.40;;
42294;SDS011;27947;47.556;18.718;2022-09-09T13:09:14;2.05;;;0.50;;
42294;SDS011;27947;47.556;18.718;2022-09-09T13:11:44;0.80;;;0.40;;
42294;SDS011;27947;47.556;18.718;2022-09-09T13:16:37;1.43;;;0.60;;
42294;SDS011;27947;47.556;18.718;2022-09-09T13:19:06;0.77;;;0.40;;
42294;SDS011;27947;47.556;18.718;2022-09-09T13:21:33;0.82;;;0.38;;
42294;SDS011;27947;47.556;18.718;2022-09-09T13:23:59;0.47;;;0.30;;
42294;SDS011;27947;47.556;18.718;2022-09-09T13:26:28;0.95;;;0.30;;
42294;SDS011;27947;47.556;18.718;2022-09-09T13:28:55;0.38;;;0.30;;
42294;SDS011;27947;47.556;18.718;2022-09-09T13:31:33;1.08;;;0.30;;
42294;SDS011;27947;47.556;18.718;2022-09-09T13:33:58;0.85;;;0.45;;
42294;SDS011;27947;47.556;18.718;2022-09-09T13:36:30;1.40;;;0.60;;
42294;SDS011;27947;47.556;18.718;2022-09-09T13:38:56;3.13;;;0.43;;
42294;SDS011;27947;47.556;18.718;2022-09-09T13:41:34;0.63;;;0.43;;
42294;SDS011;27947;47.556;18.718;2022-09-09T13:44:00;1.02;;;0.60;;
42294;SDS011;27947;47.556;18.718;2022-09-09T13:48:58;0.60;;;0.50;;
42294;SDS011;27947;47.556;18.718;2022-09-09T13:51:32;0.40;;;0.40;;
42294;SDS011;27947;47.556;18.718;2022-09-09T13:53:59;1.63;;;0.45;;
42294;SDS011;27947;47.556;18.718;2022-09-09T13:56:25;1.38;;;0.50;;
42294;SDS011;27947;47.556;18.718;2022-09-09T13:58:50;0.30;;;0.30;;
42294;SDS011;27947;47.556;18.718;2022-09-09T14:01:16;0.40;;;0.40;;
42294;SDS011;27947;47.556;18.718;2022-09-09T14:03:41;2.28;;;0.70;;
42294;SDS011;27947;47.556;18.718;2022-09-09T14:06:07;0.65;;;0.38;;
42294;SDS011;27947;47.556;18.718;2022-09-09T14:08:32;1.40;;;0.65;;
42294;SDS011;27947;47.556;18.718;2022-09-09T14:11:05;0.63;;;0.50;;
42294;SDS011;27947;47.556;18.718;2022-09-09T14:13:30;5.90;;;0.52;;
42294;SDS011;27947;47.556;18.718;2022-09-09T14:15:56;2.60;;;0.40;;
42294;SDS011;27947;47.556;18.718;2022-09-09T14:18:21;2.13;;;0.45;;
42294;SDS011;27947;47.556;18.718;2022-09-09T14:20:48;0.55;;;0.40;;
42294;SDS011;27947;47.556;18.718;2022-09-09T14:23:15;0.90;;;0.40;;
42294;SDS011;27947;47.556;18.718;2022-09-09T14:25:41;0.55;;;0.40;;
42294;SDS011;27947;47.556;18.718;2022-09-09T14:28:08;0.50;;;0.40;;
42294;SDS011;27947;47.556;18.718;2022-09-09T14:30:33;1.05;;;0.50;;
42294;SDS011;27947;47.556;18.718;2022-09-09T14:32:59;0.70;;;0.38;;
42294;SDS011;27947;47.556;18.718;2022-09-09T14:35:25;1.00;;;0.45;;
42294;SDS011;27947;47.556;18.718;2022-09-09T14:37:50;1.55;;;0.32;;
42294;SDS011;27947;47.556;18.718;2022-09-09T14:40:16;0.68;;;0.40;;
42294;SDS011;27947;47.556;18.718;2022-09-09T14:42:42;2.08;;;0.50;;
42294;SDS011;27947;47.556;18.718;2022-09-09T14:45:07;0.32;;;0.32;;
42294;SDS011;27947;47.556;18.718;2022-09-09T14:47:33;0.77;;;0.32;;
42294;SDS011;27947;47.556;18.718;2022-09-09T14:49:58;1.75;;;0.50;;
42294;SDS011;27947;47.556;18.718;2022-09-09T14:52:26;1.35;;;0.30;;
42294;SDS011;27947;47.556;18.718;2022-09-09T14:54:51;0.70;;;0.40;;
42294;SDS011;27947;47.556;18.718;2022-09-09T14:57:16;0.68;;;0.50;;
42294;SDS011;27947;47.556;18.718;2022-09-09T14:59:42;0.63;;;0.45;;
42294;SDS011;27947;47.556;18.718;2022-09-09T15:02:08;0.70;;;0.50;;
42294;SDS011;27947;47.556;18.718;2022-09-09T15:04:33;0.60;;;0.50;;
42294;SDS011;27947;47.556;18.718;2022-09-09T15:06:58;0.35;;;0.35;;
42294;SDS011;27947;47.556;18.718;2022-09-09T15:09:24;0.68;;;0.40;;
42294;SDS011;27947;47.556;18.718;2022-09-09T15:11:49;0.85;;;0.60;;
42294;SDS011;27947;47.556;18.718;2022-09-09T15:14:15;2.63;;;0.60;;
42294;SDS011;27947;47.556;18.718;2022-09-09T15:16:40;1.45;;;0.47;;
42294;SDS011;27947;47.556;18.718;2022-09-09T15:19:05;1.25;;;0.50;;
42294;SDS011;27947;47.556;18.718;2022-09-09T15:21:32;0.93;;;0.60;;
42294;SDS011;27947;47.556;18.718;2022-09-09T15:23:58;1.75;;;0.32;;
42294;SDS011;27947;47.556;18.718;2022-09-09T15:26:24;4.32;;;0.50;;
42294;SDS011;27947;47.556;18.718;2022-09-09T15:28:49;3.78;;;0.55;;
42294;SDS011;27947;47.556;18.718;2022-09-09T15:31:17;0.52;;;0.40;;
42294;SDS011;27947;47.556;18.718;2022-09-09T15:33:49;0.55;;;0.50;;
42294;SDS011;27947;47.556;18.718;2022-09-09T15:36:24;0.40;;;0.35;;
42294;SDS011;27947;47.556;18.718;2022-09-09T15:38:50;2.67;;;0.70;;
42294;SDS011;27947;47.556;18.718;2022-09-09T15:41:16;0.43;;;0.43;;
42294;SDS011;27947;47.556;18.718;2022-09-09T15:43:45;1.42;;;0.38;;
42294;SDS011;27947;47.556;18.718;2022-09-09T15:48:43;0.40;;;0.40;;
42294;SDS011;27947;47.556;18.718;2022-09-09T15:51:09;0.47;;;0.40;;
42294;SDS011;27947;47.556;18.718;2022-09-09T15:53:35;0.63;;;0.40;;
42294;SDS011;27947;47.556;18.718;2022-09-09T15:56:03;1.30;;;0.50;;
42294;SDS011;27947;47.556;18.718;2022-09-09T15:58:32;0.35;;;0.35;;
42294;SDS011;27947;47.556;18.718;2022-09-09T16:01:02;1.38;;;0.40;;
42294;SDS011;27947;47.556;18.718;2022-09-09T16:03:27;0.90;;;0.50;;
42294;SDS011;27947;47.556;18.718;2022-09-09T16:05:53;1.55;;;0.45;;
42294;SDS011;27947;47.556;18.718;2022-09-09T16:08:18;1.10;;;0.50;;
42294;SDS011;27947;47.556;18.718;2022-09-09T16:10:43;0.85;;;0.40;;
42294;SDS011;27947;47.556;18.718;2022-09-09T16:13:10;1.05;;;0.30;;
42294;SDS011;27947;47.556;18.718;2022-09-09T16:15:38;0.80;;;0.55;;
42294;SDS011;27947;47.556;18.718;2022-09-09T16:18:03;1.35;;;0.55;;
42294;SDS011;27947;47.556;18.718;2022-09-09T16:20:29;0.73;;;0.68;;
42294;SDS011;27947;47.556;18.718;2022-09-09T16:22:55;0.68;;;0.38;;
42294;SDS011;27947;47.556;18.718;2022-09-09T16:25:22;0.43;;;0.40;;
42294;SDS011;27947;47.556;18.718;2022-09-09T16:27:47;0.35;;;0.30;;
42294;SDS011;27947;47.556;18.718;2022-09-09T16:30:13;3.97;;;0.43;;
42294;SDS011;27947;47.556;18.718;2022-09-09T16:32:38;0.60;;;0.40;;
42294;SDS011;27947;47.556;18.718;2022-09-09T16:35:03;0.63;;;0.50;;
42294;SDS011;27947;47.556;18.718;2022-09-09T16:37:29;0.85;;;0.40;;
42294;SDS011;27947;47.556;18.718;2022-09-09T16:39:55;1.05;;;0.50;;
42294;SDS011;27947;47.556;18.718;2022-09-09T16:42:20;0.38;;;0.38;;
42294;SDS011;27947;47.556;18.718;2022-09-09T16:44:45;0.98;;;0.40;;